Millbach, Pennsylvania
Current Conditions -  °F | °C
As of 1:53 PM on Thursday 23 Oct 2014 (Local Time) from KLNS Reporting Station
Overcast Overcast  
Wind Chill: 56°   Ceiling: 2900
Heat Index: 56°   Visibility: 10mi
Dew Point: 44°   Wind: 14mph
Humidity: 64%   Direction: 330°NNW
Pressure: 29.83"   Gusts: NA
Location:  40.3035°N, 76.254°W
Report Text: KLNS 231753Z 33012KT 10SM OVC029 13/07 A2983 RMK AO2 SLP099 T01330067 10139 20111 56008
Loading
Personal Weather Stations






























Interactive Weather Map
Tropical Storm Tracking
New forecast layout! Learn more

10-Day Weather Forecast

Advertisements
Track Severe Weather on mobile